sensor_id;sensor_type;location;lat;lon;timestamp;pressure;altitude;pressure_sealevel;temperature
73685;BMP280;61985;51.070;14.064;2023-01-30T00:02:11;98680.25;;;-2.26
73685;BMP280;61985;51.070;14.064;2023-01-30T00:04:37;98668.13;;;-2.27
73685;BMP280;61985;51.070;14.064;2023-01-30T00:07:02;98654.28;;;-2.24
73685;BMP280;61985;51.070;14.064;2023-01-30T00:09:27;98648.34;;;-2.21
73685;BMP280;61985;51.070;14.064;2023-01-30T00:11:53;98645.38;;;-2.19
73685;BMP280;61985;51.070;14.064;2023-01-30T00:14:21;98637.78;;;-2.21
73685;BMP280;61985;51.070;14.064;2023-01-30T00:16:46;98645.69;;;-2.21
73685;BMP280;61985;51.070;14.064;2023-01-30T00:19:12;98641.31;;;-2.17
73685;BMP280;61985;51.070;14.064;2023-01-30T00:21:37;98643.94;;;-2.17
73685;BMP280;61985;51.070;14.064;2023-01-30T00:24:03;98632.59;;;-2.17
73685;BMP280;61985;51.070;14.064;2023-01-30T00:26:29;98630.50;;;-2.11
73685;BMP280;61985;51.070;14.064;2023-01-30T00:28:54;98622.25;;;-2.10
73685;BMP280;61985;51.070;14.064;2023-01-30T00:31:20;98628.63;;;-2.11
73685;BMP280;61985;51.070;14.064;2023-01-30T00:33:45;98633.56;;;-2.09
73685;BMP280;61985;51.070;14.064;2023-01-30T00:36:11;98636.00;;;-2.04
73685;BMP280;61985;51.070;14.064;2023-01-30T00:38:36;98630.06;;;-2.01
73685;BMP280;61985;51.070;14.064;2023-01-30T00:41:02;98617.19;;;-2.03
73685;BMP280;61985;51.070;14.064;2023-01-30T00:43:27;98620.59;;;-2.02
73685;BMP280;61985;51.070;14.064;2023-01-30T00:46:15;98609.78;;;-1.97
73685;BMP280;61985;51.070;14.064;2023-01-30T00:49:08;98606.03;;;-1.96
73685;BMP280;61985;51.070;14.064;2023-01-30T00:51:34;98600.00;;;-1.97
73685;BMP280;61985;51.070;14.064;2023-01-30T00:53:59;98586.88;;;-1.93
73685;BMP280;61985;51.070;14.064;2023-01-30T00:56:25;98591.19;;;-1.88
73685;BMP280;61985;51.070;14.064;2023-01-30T00:58:50;98573.00;;;-1.90
73685;BMP280;61985;51.070;14.064;2023-01-30T01:01:16;98567.84;;;-1.86
73685;BMP280;61985;51.070;14.064;2023-01-30T01:03:41;98550.91;;;-1.85
73685;BMP280;61985;51.070;14.064;2023-01-30T01:06:06;98553.63;;;-1.82
73685;BMP280;61985;51.070;14.064;2023-01-30T01:08:32;98562.00;;;-1.80
73685;BMP280;61985;51.070;14.064;2023-01-30T01:10:57;98566.50;;;-1.80
73685;BMP280;61985;51.070;14.064;2023-01-30T01:13:22;98564.31;;;-1.78
73685;BMP280;61985;51.070;14.064;2023-01-30T01:15:48;98567.38;;;-1.76
73685;BMP280;61985;51.070;14.064;2023-01-30T01:18:14;98559.13;;;-1.74
73685;BMP280;61985;51.070;14.064;2023-01-30T01:20:39;98562.84;;;-1.75
73685;BMP280;61985;51.070;14.064;2023-01-30T01:23:05;98550.78;;;-1.76
73685;BMP280;61985;51.070;14.064;2023-01-30T01:25:30;98548.13;;;-1.76
73685;BMP280;61985;51.070;14.064;2023-01-30T01:27:56;98532.03;;;-1.71
73685;BMP280;61985;51.070;14.064;2023-01-30T01:30:21;98528.97;;;-1.73
73685;BMP280;61985;51.070;14.064;2023-01-30T01:32:46;98522.13;;;-1.74
73685;BMP280;61985;51.070;14.064;2023-01-30T01:35:12;98527.41;;;-1.74
73685;BMP280;61985;51.070;14.064;2023-01-30T01:37:37;98511.66;;;-1.71
73685;BMP280;61985;51.070;14.064;2023-01-30T01:40:04;98501.88;;;-1.70
73685;BMP280;61985;51.070;14.064;2023-01-30T01:42:49;98499.66;;;-1.68
73685;BMP280;61985;51.070;14.064;2023-01-30T01:45:21;98484.47;;;-1.71
73685;BMP280;61985;51.070;14.064;2023-01-30T01:47:58;98480.47;;;-1.65
73685;BMP280;61985;51.070;14.064;2023-01-30T01:50:29;98479.38;;;-1.64
73685;BMP280;61985;51.070;14.064;2023-01-30T01:52:57;98480.88;;;-1.63
73685;BMP280;61985;51.070;14.064;2023-01-30T01:55:24;98474.25;;;-1.57
73685;BMP280;61985;51.070;14.064;2023-01-30T01:58:05;98468.88;;;-1.61
73685;BMP280;61985;51.070;14.064;2023-01-30T02:00:33;98455.41;;;-1.55
73685;BMP280;61985;51.070;14.064;2023-01-30T02:03:02;98446.38;;;-1.54
73685;BMP280;61985;51.070;14.064;2023-01-30T02:05:31;98426.44;;;-1.52
73685;BMP280;61985;51.070;14.064;2023-01-30T02:08:18;98431.03;;;-1.49
73685;BMP280;61985;51.070;14.064;2023-01-30T02:10:53;98407.69;;;-1.47
73685;BMP280;61985;51.070;14.064;2023-01-30T02:13:20;98389.47;;;-1.52
73685;BMP280;61985;51.070;14.064;2023-01-30T02:15:46;98381.59;;;-1.48
73685;BMP280;61985;51.070;14.064;2023-01-30T02:18:13;98367.63;;;-1.49
73685;BMP280;61985;51.070;14.064;2023-01-30T02:24:08;98360.97;;;-1.42
73685;BMP280;61985;51.070;14.064;2023-01-30T02:35:20;98354.13;;;-1.44
73685;BMP280;61985;51.070;14.064;2023-01-30T02:38:15;98356.78;;;-1.44
73685;BMP280;61985;51.070;14.064;2023-01-30T02:41:09;98350.41;;;-1.42
73685;BMP280;61985;51.070;14.064;2023-01-30T02:43:45;98356.78;;;-1.44
73685;BMP280;61985;51.070;14.064;2023-01-30T02:46:17;98354.13;;;-1.44
73685;BMP280;61985;51.070;14.064;2023-01-30T02:49:16;98365.13;;;-1.41
73685;BMP280;61985;51.070;14.064;2023-01-30T02:51:43;98378.25;;;-1.29
73685;BMP280;61985;51.070;14.064;2023-01-30T02:54:11;98376.03;;;-1.27
73685;BMP280;61985;51.070;14.064;2023-01-30T02:56:47;98362.81;;;-1.27
73685;BMP280;61985;51.070;14.064;2023-01-30T02:59:21;98366.25;;;-1.27
73685;BMP280;61985;51.070;14.064;2023-01-30T03:10:17;98306.47;;;-1.12
73685;BMP280;61985;51.070;14.064;2023-01-30T03:12:58;98316.00;;;-1.07
73685;BMP280;61985;51.070;14.064;2023-01-30T03:15:37;98318.31;;;-1.05
73685;BMP280;61985;51.070;14.064;2023-01-30T03:18:05;98303.00;;;-0.96
73685;BMP280;61985;51.070;14.064;2023-01-30T03:20:36;98301.53;;;-0.94
73685;BMP280;61985;51.070;14.064;2023-01-30T03:23:02;98289.06;;;-0.93
73685;BMP280;61985;51.070;14.064;2023-01-30T03:25:27;98290.66;;;-0.88
73685;BMP280;61985;51.070;14.064;2023-01-30T03:27:54;98291.38;;;-0.92
73685;BMP280;61985;51.070;14.064;2023-01-30T03:30:20;98290.31;;;-0.87
73685;BMP280;61985;51.070;14.064;2023-01-30T03:32:46;98280.94;;;-0.84
73685;BMP280;61985;51.070;14.064;2023-01-30T03:35:12;98260.16;;;-0.82
73685;BMP280;61985;51.070;14.064;2023-01-30T03:37:37;98260.66;;;-0.77
73685;BMP280;61985;51.070;14.064;2023-01-30T03:40:03;98249.06;;;-0.68
73685;BMP280;61985;51.070;14.064;2023-01-30T03:42:29;98250.31;;;-0.62
73685;BMP280;61985;51.070;14.064;2023-01-30T03:44:54;98255.34;;;-0.57
73685;BMP280;61985;51.070;14.064;2023-01-30T03:47:20;98250.44;;;-0.55
73685;BMP280;61985;51.070;14.064;2023-01-30T03:49:45;98234.56;;;-0.55
73685;BMP280;61985;51.070;14.064;2023-01-30T03:52:11;98220.22;;;-0.54
73685;BMP280;61985;51.070;14.064;2023-01-30T03:54:36;98214.16;;;-0.55
73685;BMP280;61985;51.070;14.064;2023-01-30T03:57:01;98206.66;;;-0.52
73685;BMP280;61985;51.070;14.064;2023-01-30T03:59:27;98205.06;;;-0.57
73685;BMP280;61985;51.070;14.064;2023-01-30T04:01:52;98197.13;;;-0.57
73685;BMP280;61985;51.070;14.064;2023-01-30T04:04:18;98205.06;;;-0.57
73685;BMP280;61985;51.070;14.064;2023-01-30T04:06:43;98227.84;;;-0.49
73685;BMP280;61985;51.070;14.064;2023-01-30T04:09:09;98221.81;;;-0.49
73685;BMP280;61985;51.070;14.064;2023-01-30T04:11:34;98218.91;;;-0.41
73685;BMP280;61985;51.070;14.064;2023-01-30T04:13:59;98216.25;;;-0.41
73685;BMP280;61985;51.070;14.064;2023-01-30T04:16:26;98197.34;;;-0.43
73685;BMP280;61985;51.070;14.064;2023-01-30T04:18:51;98196.25;;;-0.38
73685;BMP280;61985;51.070;14.064;2023-01-30T04:21:17;98199.09;;;-0.27
73685;BMP280;61985;51.070;14.064;2023-01-30T04:23:42;98188.88;;;-0.29
73685;BMP280;61985;51.070;14.064;2023-01-30T04:26:08;98189.34;;;-0.23
73685;BMP280;61985;51.070;14.064;2023-01-30T04:28:34;98192.75;;;-0.23
73685;BMP280;61985;51.070;14.064;2023-01-30T04:30:59;98193.22;;;-0.17
73685;BMP280;61985;51.070;14.064;2023-01-30T04:33:25;98174.75;;;-0.10
73685;BMP280;61985;51.070;14.064;2023-01-30T04:35:57;98166.16;;;-0.03
73685;BMP280;61985;51.070;14.064;2023-01-30T04:38:25;98175.97;;;-0.04
73685;BMP280;61985;51.070;14.064;2023-01-30T04:40:52;98175.66;;;0.02
73685;BMP280;61985;51.070;14.064;2023-01-30T04:43:18;98159.25;;;0.19
73685;BMP280;61985;51.070;14.064;2023-01-30T04:45:45;98162.25;;;0.17
73685;BMP280;61985;51.070;14.064;2023-01-30T04:48:11;98167.25;;;0.26
73685;BMP280;61985;51.070;14.064;2023-01-30T04:50:37;98163.75;;;0.18
73685;BMP280;61985;51.070;14.064;2023-01-30T04:53:03;98135.47;;;0.26
73685;BMP280;61985;51.070;14.064;2023-01-30T04:55:28;98136.63;;;0.29
73685;BMP280;61985;51.070;14.064;2023-01-30T04:57:54;98133.63;;;0.30
73685;BMP280;61985;51.070;14.064;2023-01-30T05:00:19;98135.97;;;0.39
73685;BMP280;61985;51.070;14.064;2023-01-30T05:02:45;98127.31;;;0.46
73685;BMP280;61985;51.070;14.064;2023-01-30T05:05:10;98118.56;;;0.42
73685;BMP280;61985;51.070;14.064;2023-01-30T05:07:35;98114.41;;;0.41
73685;BMP280;61985;51.070;14.064;2023-01-30T05:10:01;98116.03;;;0.52
73685;BMP280;61985;51.070;14.064;2023-01-30T05:12:27;98111.06;;;0.47
73685;BMP280;61985;51.070;14.064;2023-01-30T05:14:53;98098.53;;;0.44
73685;BMP280;61985;51.070;14.064;2023-01-30T05:17:18;98090.19;;;0.42
73685;BMP280;61985;51.070;14.064;2023-01-30T05:19:44;98088.44;;;0.57
73685;BMP280;61985;51.070;14.064;2023-01-30T05:22:09;98094.94;;;0.63
73685;BMP280;61985;51.070;14.064;2023-01-30T05:24:35;98078.25;;;0.59
73685;BMP280;61985;51.070;14.064;2023-01-30T05:27:01;98070.31;;;0.63
73685;BMP280;61985;51.070;14.064;2023-01-30T05:29:26;98051.38;;;0.61
73685;BMP280;61985;51.070;14.064;2023-01-30T05:31:52;98054.88;;;0.72
73685;BMP280;61985;51.070;14.064;2023-01-30T05:34:17;98055.97;;;0.67
73685;BMP280;61985;51.070;14.064;2023-01-30T05:36:43;98052.13;;;0.65
73685;BMP280;61985;51.070;14.064;2023-01-30T05:39:10;98052.09;;;0.58
73685;BMP280;61985;51.070;14.064;2023-01-30T05:41:35;98053.31;;;0.67
73685;BMP280;61985;51.070;14.064;2023-01-30T05:44:04;98049.16;;;0.70
73685;BMP280;61985;51.070;14.064;2023-01-30T05:46:29;98062.38;;;0.66
73685;BMP280;61985;51.070;14.064;2023-01-30T05:48:55;98053.22;;;0.60
73685;BMP280;61985;51.070;14.064;2023-01-30T05:51:22;98056.97;;;0.56
73685;BMP280;61985;51.070;14.064;2023-01-30T05:53:48;98043.78;;;0.59
73685;BMP280;61985;51.070;14.064;2023-01-30T05:56:14;98052.09;;;0.58
73685;BMP280;61985;51.070;14.064;2023-01-30T05:58:40;98046.00;;;0.57
73685;BMP280;61985;51.070;14.064;2023-01-30T06:01:07;98028.25;;;0.61
73685;BMP280;61985;51.070;14.064;2023-01-30T06:03:34;98027.97;;;0.70
73685;BMP280;61985;51.070;14.064;2023-01-30T06:06:00;98021.22;;;0.80
73685;BMP280;61985;51.070;14.064;2023-01-30T06:08:26;98024.28;;;0.85
73685;BMP280;61985;51.070;14.064;2023-01-30T06:10:51;98026.97;;;0.89
73685;BMP280;61985;51.070;14.064;2023-01-30T06:13:19;98026.56;;;0.87
73685;BMP280;61985;51.070;14.064;2023-01-30T06:15:44;98012.16;;;0.88
73685;BMP280;61985;51.070;14.064;2023-01-30T06:18:10;98025.84;;;0.90
73685;BMP280;61985;51.070;14.064;2023-01-30T06:20:36;98023.19;;;0.90
73685;BMP280;61985;51.070;14.064;2023-01-30T06:23:02;98027.41;;;0.98
73685;BMP280;61985;51.070;14.064;2023-01-30T06:25:27;98026.25;;;0.96
73685;BMP280;61985;51.070;14.064;2023-01-30T06:27:54;98034.97;;;0.96
73685;BMP280;61985;51.070;14.064;2023-01-30T06:30:20;98032.72;;;1.02
73685;BMP280;61985;51.070;14.064;2023-01-30T06:32:49;98024.03;;;1.01
73685;BMP280;61985;51.070;14.064;2023-01-30T06:35:14;98028.50;;;0.94
73685;BMP280;61985;51.070;14.064;2023-01-30T06:37:40;98024.03;;;1.01
73685;BMP280;61985;51.070;14.064;2023-01-30T06:40:06;98030.47;;;1.04
73685;BMP280;61985;51.070;14.064;2023-01-30T06:42:31;98026.28;;;0.99
73685;BMP280;61985;51.070;14.064;2023-01-30T06:44:56;98007.81;;;1.14
73685;BMP280;61985;51.070;14.064;2023-01-30T06:47:22;98017.31;;;1.22
73685;BMP280;61985;51.070;14.064;2023-01-30T06:49:47;98012.78;;;1.22
73685;BMP280;61985;51.070;14.064;2023-01-30T06:52:13;98010.81;;;1.12
73685;BMP280;61985;51.070;14.064;2023-01-30T06:54:38;98004.34;;;1.10
73685;BMP280;61985;51.070;14.064;2023-01-30T06:57:04;97990.31;;;1.05
73685;BMP280;61985;51.070;14.064;2023-01-30T06:59:29;97987.25;;;1.03
73685;BMP280;61985;51.070;14.064;2023-01-30T07:01:54;97989.91;;;1.00
73685;BMP280;61985;51.070;14.064;2023-01-30T07:04:19;97994.44;;;0.99
73685;BMP280;61985;51.070;14.064;2023-01-30T07:06:45;97995.56;;;0.95
73685;BMP280;61985;51.070;14.064;2023-01-30T07:09:10;97995.47;;;0.84
73685;BMP280;61985;51.070;14.064;2023-01-30T07:11:36;98000.00;;;0.80
73685;BMP280;61985;51.070;14.064;2023-01-30T07:14:01;97991.59;;;0.74
73685;BMP280;61985;51.070;14.064;2023-01-30T07:16:26;97997.63;;;0.67
73685;BMP280;61985;51.070;14.064;2023-01-30T07:18:56;97996.88;;;0.67
73685;BMP280;61985;51.070;14.064;2023-01-30T07:21:23;97998.34;;;0.64
73685;BMP280;61985;51.070;14.064;2023-01-30T07:23:49;97988.13;;;0.63
73685;BMP280;61985;51.070;14.064;2023-01-30T07:26:14;97991.56;;;0.67
73685;BMP280;61985;51.070;14.064;2023-01-30T07:28:39;97980.97;;;0.70
73685;BMP280;61985;51.070;14.064;2023-01-30T07:31:05;97973.38;;;0.65
73685;BMP280;61985;51.070;14.064;2023-01-30T07:33:32;97975.28;;;0.68
73685;BMP280;61985;51.070;14.064;2023-01-30T07:35:58;97971.88;;;0.68
73685;BMP280;61985;51.070;14.064;2023-01-30T07:38:23;97975.69;;;0.70
73685;BMP280;61985;51.070;14.064;2023-01-30T07:40:48;97977.97;;;0.72
73685;BMP280;61985;51.070;14.064;2023-01-30T07:43:14;97976.88;;;0.80
73685;BMP280;61985;51.070;14.064;2023-01-30T07:45:45;97970.06;;;0.79
73685;BMP280;61985;51.070;14.064;2023-01-30T07:48:13;97984.84;;;0.80
73685;BMP280;61985;51.070;14.064;2023-01-30T07:50:39;97968.16;;;0.80
73685;BMP280;61985;51.070;14.064;2023-01-30T07:53:06;97975.38;;;0.83
73685;BMP280;61985;51.070;14.064;2023-01-30T07:55:32;97970.81;;;0.80
73685;BMP280;61985;51.070;14.064;2023-01-30T07:57:58;97975.38;;;0.83
73685;BMP280;61985;51.070;14.064;2023-01-30T08:00:23;97971.25;;;0.89
73685;BMP280;61985;51.070;14.064;2023-01-30T08:02:49;97976.63;;;0.96
73685;BMP280;61985;51.070;14.064;2023-01-30T08:05:15;97960.78;;;1.07
73685;BMP280;61985;51.070;14.064;2023-01-30T08:07:40;97961.56;;;1.15
73685;BMP280;61985;51.070;14.064;2023-01-30T08:10:06;97974.44;;;1.13
73685;BMP280;61985;51.070;14.064;2023-01-30T08:12:31;97969.47;;;1.07
73685;BMP280;61985;51.070;14.064;2023-01-30T08:14:57;97971.81;;;1.16
73685;BMP280;61985;51.070;14.064;2023-01-30T08:17:22;97964.59;;;1.17
73685;BMP280;61985;51.070;14.064;2023-01-30T08:19:47;97975.97;;;1.14
73685;BMP280;61985;51.070;14.064;2023-01-30T08:22:13;97958.19;;;1.18
73685;BMP280;61985;51.070;14.064;2023-01-30T08:24:39;97963.13;;;1.19
73685;BMP280;61985;51.070;14.064;2023-01-30T08:27:04;97950.22;;;1.25
73685;BMP280;61985;51.070;14.064;2023-01-30T08:29:30;97944.97;;;1.29
73685;BMP280;61985;51.070;14.064;2023-01-30T08:31:59;97953.69;;;1.33
73685;BMP280;61985;51.070;14.064;2023-01-30T08:34:25;97964.66;;;1.24
73685;BMP280;61985;51.070;14.064;2023-01-30T08:36:51;97965.03;;;1.22
73685;BMP280;61985;51.070;14.064;2023-01-30T08:39:17;97957.84;;;1.30
73685;BMP280;61985;51.070;14.064;2023-01-30T08:41:42;97958.59;;;1.27
73685;BMP280;61985;51.070;14.064;2023-01-30T08:44:09;97932.06;;;1.34
73685;BMP280;61985;51.070;14.064;2023-01-30T08:46:34;97943.06;;;1.29
73685;BMP280;61985;51.070;14.064;2023-01-30T08:49:00;97943.03;;;1.36
73685;BMP280;61985;51.070;14.064;2023-01-30T08:51:25;97929.06;;;1.43
73685;BMP280;61985;51.070;14.064;2023-01-30T08:53:51;97931.31;;;1.34
73685;BMP280;61985;51.070;14.064;2023-01-30T08:56:16;97924.47;;;1.36
73685;BMP280;61985;51.070;14.064;2023-01-30T08:58:41;97936.63;;;1.34
73685;BMP280;61985;51.070;14.064;2023-01-30T09:01:08;97922.59;;;1.33
73685;BMP280;61985;51.070;14.064;2023-01-30T09:03:34;97935.09;;;1.29
73685;BMP280;61985;51.070;14.064;2023-01-30T09:05:59;97932.81;;;1.24
73685;BMP280;61985;51.070;14.064;2023-01-30T09:08:24;97933.59;;;1.35
73685;BMP280;61985;51.070;14.064;2023-01-30T09:10:50;97919.19;;;1.43
73685;BMP280;61985;51.070;14.064;2023-01-30T09:13:15;97926.78;;;1.49
73685;BMP280;61985;51.070;14.064;2023-01-30T09:15:41;97931.72;;;1.50
73685;BMP280;61985;51.070;14.064;2023-01-30T09:18:07;97940.84;;;1.53
73685;BMP280;61985;51.070;14.064;2023-01-30T09:20:32;97918.47;;;1.54
73685;BMP280;61985;51.070;14.064;2023-01-30T09:22:58;97921.91;;;1.61
73685;BMP280;61985;51.070;14.064;2023-01-30T09:25:24;97926.44;;;1.61
73685;BMP280;61985;51.070;14.064;2023-01-30T09:27:49;97933.25;;;1.55
73685;BMP280;61985;51.070;14.064;2023-01-30T09:30:15;97930.59;;;1.55
73685;BMP280;61985;51.070;14.064;2023-01-30T09:32:41;97931.03;;;1.68
73685;BMP280;61985;51.070;14.064;2023-01-30T09:35:06;97932.94;;;1.71
73685;BMP280;61985;51.070;14.064;2023-01-30T09:37:32;97933.69;;;1.75
73685;BMP280;61985;51.070;14.064;2023-01-30T09:39:58;97931.81;;;1.75
73685;BMP280;61985;51.070;14.064;2023-01-30T09:42:49;97923.09;;;1.78
73685;BMP280;61985;51.070;14.064;2023-01-30T09:45:52;97936.72;;;1.73
73685;BMP280;61985;51.070;14.064;2023-01-30T09:51:24;97923.84;;;1.83
73685;BMP280;61985;51.070;14.064;2023-01-30T09:54:12;97920.06;;;1.80
73685;BMP280;61985;51.070;14.064;2023-01-30T09:56:39;97897.63;;;1.92
73685;BMP280;61985;51.070;14.064;2023-01-30T09:59:05;97901.81;;;1.93
73685;BMP280;61985;51.070;14.064;2023-01-30T10:01:50;97904.88;;;2.02
73685;BMP280;61985;51.070;14.064;2023-01-30T10:07:07;97893.88;;;2.04
73685;BMP280;61985;51.070;14.064;2023-01-30T10:09:53;97898.81;;;2.05
73685;BMP280;61985;51.070;14.064;2023-01-30T10:12:54;97898.81;;;2.02
73685;BMP280;61985;51.070;14.064;2023-01-30T10:15:33;97892.75;;;2.15
73685;BMP280;61985;51.070;14.064;2023-01-30T10:18:20;97894.25;;;2.16
73685;BMP280;61985;51.070;14.064;2023-01-30T10:21:03;97893.09;;;2.17
73685;BMP280;61985;51.070;14.064;2023-01-30T10:26:23;97893.84;;;2.18
73685;BMP280;61985;51.070;14.064;2023-01-30T10:29:10;97895.00;;;2.21
73685;BMP280;61985;51.070;14.064;2023-01-30T10:31:46;97889.31;;;2.26
73685;BMP280;61985;51.070;14.064;2023-01-30T10:34:32;97914.38;;;2.25
73685;BMP280;61985;51.070;14.064;2023-01-30T10:37:06;97897.28;;;2.11
73685;BMP280;61985;51.070;14.064;2023-01-30T10:39:56;97901.09;;;2.17
73685;BMP280;61985;51.070;14.064;2023-01-30T10:42:37;97903.00;;;2.17
73685;BMP280;61985;51.070;14.064;2023-01-30T10:45:14;97901.09;;;2.25
73685;BMP280;61985;51.070;14.064;2023-01-30T10:48:03;97906.41;;;2.25
73685;BMP280;61985;51.070;14.064;2023-01-30T10:50:49;97906.78;;;2.27
73685;BMP280;61985;51.070;14.064;2023-01-30T10:53:22;97887.41;;;2.30
73685;BMP280;61985;51.070;14.064;2023-01-30T10:56:09;97888.16;;;2.34
73685;BMP280;61985;51.070;14.064;2023-01-30T10:58:54;97887.41;;;2.30
73685;BMP280;61985;51.070;14.064;2023-01-30T11:01:31;97892.31;;;2.42
73685;BMP280;61985;51.070;14.064;2023-01-30T11:04:02;97875.28;;;2.32
73685;BMP280;61985;51.070;14.064;2023-01-30T11:06:28;97888.53;;;2.29
73685;BMP280;61985;51.070;14.064;2023-01-30T11:08:54;97879.03;;;2.39
73685;BMP280;61985;51.070;14.064;2023-01-30T11:11:47;97886.63;;;2.44
73685;BMP280;61985;51.070;14.064;2023-01-30T11:14:13;97888.13;;;2.41
73685;BMP280;61985;51.070;14.064;2023-01-30T11:16:47;97873.72;;;2.39
73685;BMP280;61985;51.070;14.064;2023-01-30T11:19:14;97882.06;;;2.33
73685;BMP280;61985;51.070;14.064;2023-01-30T11:21:40;97892.72;;;2.30
73685;BMP280;61985;51.070;14.064;2023-01-30T11:24:27;97886.66;;;2.26
73685;BMP280;61985;51.070;14.064;2023-01-30T11:26:55;97890.09;;;2.15
73685;BMP280;61985;51.070;14.064;2023-01-30T11:29:25;97877.53;;;1.98
73685;BMP280;61985;51.070;14.064;2023-01-30T11:31:51;97874.50;;;2.03
73685;BMP280;61985;51.070;14.064;2023-01-30T11:34:19;97876.78;;;2.01
73685;BMP280;61985;51.070;14.064;2023-01-30T11:36:45;97877.16;;;2.10
73685;BMP280;61985;51.070;14.064;2023-01-30T11:41:41;97876.78;;;2.12
73685;BMP280;61985;51.070;14.064;2023-01-30T11:44:09;97866.16;;;2.08
73685;BMP280;61985;51.070;14.064;2023-01-30T11:46:41;97867.69;;;2.09
73685;BMP280;61985;51.070;14.064;2023-01-30T11:49:15;97869.19;;;2.10
73685;BMP280;61985;51.070;14.064;2023-01-30T11:51:45;97870.69;;;2.04
73685;BMP280;61985;51.070;14.064;2023-01-30T11:54:17;97870.69;;;2.04
73685;BMP280;61985;51.070;14.064;2023-01-30T11:56:55;97861.59;;;2.05
73685;BMP280;61985;51.070;14.064;2023-01-30T11:59:45;97850.59;;;2.03
73685;BMP280;61985;51.070;14.064;2023-01-30T12:02:32;97855.94;;;1.82
73685;BMP280;61985;51.070;14.064;2023-01-30T12:05:04;97848.31;;;1.87
73685;BMP280;61985;51.070;14.064;2023-01-30T12:07:35;97849.81;;;1.92
73685;BMP280;61985;51.070;14.064;2023-01-30T12:15:25;97831.63;;;1.94
73685;BMP280;61985;51.070;14.064;2023-01-30T12:17:58;97818.72;;;2.03
73685;BMP280;61985;51.070;14.064;2023-01-30T12:23:32;97828.56;;;2.21
73685;BMP280;61985;51.070;14.064;2023-01-30T12:26:23;97818.31;;;2.26
73685;BMP280;61985;51.070;14.064;2023-01-30T12:31:48;97811.84;;;2.16
73685;BMP280;61985;51.070;14.064;2023-01-30T12:34:15;97808.81;;;2.22
73685;BMP280;61985;51.070;14.064;2023-01-30T12:36:55;97814.50;;;2.24
73685;BMP280;61985;51.070;14.064;2023-01-30T12:39:50;97814.47;;;2.42
73685;BMP280;61985;51.070;14.064;2023-01-30T12:45:27;97816.00;;;2.32
73685;BMP280;61985;51.070;14.064;2023-01-30T12:56:32;97821.72;;;2.30
73685;BMP280;61985;51.070;14.064;2023-01-30T12:59:21;97798.50;;;2.34
73685;BMP280;61985;51.070;14.064;2023-01-30T13:05:14;97806.16;;;2.32
73685;BMP280;61985;51.070;14.064;2023-01-30T13:18:25;97786.41;;;2.30
73685;BMP280;61985;51.070;14.064;2023-01-30T13:21:07;97787.50;;;2.36
73685;BMP280;61985;51.070;14.064;2023-01-30T13:26:06;97798.16;;;2.29
73685;BMP280;61985;51.070;14.064;2023-01-30T13:28:39;97793.59;;;2.33
73685;BMP280;61985;51.070;14.064;2023-01-30T13:31:10;97788.63;;;2.42
73685;BMP280;61985;51.070;14.064;2023-01-30T13:33:40;97781.00;;;2.44
73685;BMP280;61985;51.070;14.064;2023-01-30T13:36:25;97786.31;;;2.55
73685;BMP280;61985;51.070;14.064;2023-01-30T13:38:56;97778.72;;;2.50
73685;BMP280;61985;51.070;14.064;2023-01-30T13:41:23;97781.78;;;2.48
73685;BMP280;61985;51.070;14.064;2023-01-30T13:43:52;97785.19;;;2.49
73685;BMP280;61985;51.070;14.064;2023-01-30T13:46:26;97796.94;;;2.55
73685;BMP280;61985;51.070;14.064;2023-01-30T13:52:04;97799.22;;;2.57
73685;BMP280;61985;51.070;14.064;2023-01-30T13:55:14;97796.91;;;2.66
73685;BMP280;61985;51.070;14.064;2023-01-30T13:57:45;97789.25;;;2.68
73685;BMP280;61985;51.070;14.064;2023-01-30T14:00:32;97813.22;;;2.71
73685;BMP280;61985;51.070;14.064;2023-01-30T14:14:33;97802.25;;;2.62
73685;BMP280;61985;51.070;14.064;2023-01-30T14:17:15;97815.91;;;2.64
73685;BMP280;61985;51.070;14.064;2023-01-30T14:19:44;97794.28;;;2.62
73685;BMP280;61985;51.070;14.064;2023-01-30T14:22:34;97798.03;;;2.65
73685;BMP280;61985;51.070;14.064;2023-01-30T14:27:55;97795.38;;;2.65
73685;BMP280;61985;51.070;14.064;2023-01-30T14:30:49;97789.28;;;2.71
73685;BMP280;61985;51.070;14.064;2023-01-30T14:38:28;97793.88;;;2.64
73685;BMP280;61985;51.070;14.064;2023-01-30T14:56:53;97796.94;;;2.55
73685;BMP280;61985;51.070;14.064;2023-01-30T14:59:34;97784.41;;;2.59
73685;BMP280;61985;51.070;14.064;2023-01-30T15:04:42;97788.94;;;2.62
73685;BMP280;61985;51.070;14.064;2023-01-30T15:32:20;97812.25;;;2.19
73685;BMP280;61985;51.070;14.064;2023-01-30T15:34:55;97819.81;;;2.16
73685;BMP280;61985;51.070;14.064;2023-01-30T15:40:21;97811.09;;;2.20
73685;BMP280;61985;51.070;14.064;2023-01-30T15:43:01;97824.00;;;2.25
73685;BMP280;61985;51.070;14.064;2023-01-30T15:48:34;97825.84;;;2.35
73685;BMP280;61985;51.070;14.064;2023-01-30T15:51:03;97829.28;;;2.35
73685;BMP280;61985;51.070;14.064;2023-01-30T15:53:31;97844.09;;;2.36
73685;BMP280;61985;51.070;14.064;2023-01-30T15:56:00;97843.69;;;2.38
73685;BMP280;61985;51.070;14.064;2023-01-30T15:58:27;97860.81;;;2.37
73685;BMP280;61985;51.070;14.064;2023-01-30T16:00:55;97882.06;;;2.33
73685;BMP280;61985;51.070;14.064;2023-01-30T16:03:24;97876.00;;;2.33
73685;BMP280;61985;51.070;14.064;2023-01-30T16:05:52;97896.53;;;2.29
73685;BMP280;61985;51.070;14.064;2023-01-30T16:08:23;97884.38;;;2.28
73685;BMP280;61985;51.070;14.064;2023-01-30T16:10:50;97895.78;;;2.28
73685;BMP280;61985;51.070;14.064;2023-01-30T16:13:16;97885.88;;;2.18
73685;BMP280;61985;51.070;14.064;2023-01-30T16:16:02;97891.97;;;2.11
73685;BMP280;61985;51.070;14.064;2023-01-30T16:18:36;97898.81;;;2.05
73685;BMP280;61985;51.070;14.064;2023-01-30T16:21:05;97899.94;;;1.97
73685;BMP280;61985;51.070;14.064;2023-01-30T16:23:41;97893.47;;;1.94
73685;BMP280;61985;51.070;14.064;2023-01-30T16:26:12;97891.56;;;1.95
73685;BMP280;61985;51.070;14.064;2023-01-30T16:28:39;97888.16;;;1.91
73685;BMP280;61985;51.070;14.064;2023-01-30T16:31:07;97893.47;;;1.91
73685;BMP280;61985;51.070;14.064;2023-01-30T16:33:33;97892.69;;;1.90
73685;BMP280;61985;51.070;14.064;2023-01-30T16:36:15;97884.34;;;1.92
73685;BMP280;61985;51.070;14.064;2023-01-30T16:38:52;97916.25;;;1.95
73685;BMP280;61985;51.070;14.064;2023-01-30T16:44:17;97919.66;;;1.92
73685;BMP280;61985;51.070;14.064;2023-01-30T16:47:01;97913.22;;;1.90